Pearcot, Washington
Current Conditions -  °F | °C
As of 6:55 PM on Friday 24 Oct 2014 (Local Time) from KEAT Reporting Station
Light Rain Light Rain  
Wind Chill: 11°   Ceiling: 5500
Heat Index: 11°   Visibility: 10mi
Dew Point:   Wind: 0mph
Humidity: 68%   Direction: NA
Pressure: 29.99"   Gusts: NA
Location:  47.3635°N, 120.348°W
Report Text: KEAT 250155Z AUTO 00000KT 10SM -RA OVC055 11/05 A2999 RMK AO2 RAB26 SLP160 P0000 T01060050
Loading
Personal Weather Stations






























Interactive Weather Map
Tropical Storm Tracking
New forecast layout! Learn more

10-Day Weather Forecast

Advertisements
Track Severe Weather on mobile